Accueil
METAR-TAF:

METAR-TAF

Aéroports :

Aéroport de Kaunas

Kaunas, Lituanie

latitude: 54-54N, longitude: 023-55-12E, altitude: 77 m

Observation

Le bulletin a été fait il y a 50 minutes, à 14:50 UTC
Vent 3 kt de nord/nord-ouest, variant entre ouest et est/nord-est
Température 8°C
Humidité 71%
Pression 1003 hPa
Visibilité 10 km ou plus
pluie faible,

METAR: EYKA 171450Z 33003KT 280V060 9999 -RA NSC 08/03 Q1003

Heure: 18:40 (15:40 UTC)

Prévision

Le bulletin a été fait il y a 4 heures et 37 minutes, à 11:03 UTC
Prévision valable du 17 à 12 UTC au 18 à 12 UTC
Vent 5 kt de direction variable
Visibilité: 7000 m
Nuages fragmentés à une hauteur de 4000 ft
Temporairement
du 17 à 12 UTC au 17 à 18 UTC
Nuages épars à une hauteur de 3500 ft, Cumulonimbus.
Temporairement
du 18 à 02 UTC au 18 à 06 UTC
Nuages fragmentés à une hauteur de 500 ft

TAF: EYKA 171103Z 1712/1812 VRB05KT 7000 BKN040 TEMPO 1712/1718 SCT035CB TEMPO 1802/1806 BKN005

Observations et prévisions météorologiques de plus de 4000 aéroports (messages METAR et TAF).

Les stations disponibles sont représentées par des disques jaunes et rouges sur la carte.

Passer la souris dessus pour voir le nom de la station.

Cliquer dessus pour voir les observations et prévisions météorologiques.

Pour changer de carte: cliquez sur les boutons verts avec une croix noire pour zoomer, sur le bouton vert avec un tiret pour effectuer un zoom arrière, ou sur les flèches vertes pour les cartes adjacentes.


METAR-TAF: